Terminal Aerodrome Forecast
Issued by NWS

Home | Current Version | Previous Version | Text Only | Print | Product List | Glossary On
Versions: 1 2 3 4 5 6 7 8 9 10 11 12 13 14 15 16 17 18 19 20 21 22 23 24 25
084
FTUS41 KALY 122346
TAFPSF
TAF
KPSF 122346Z 1300/1324 19007KT P6SM OVC080
     FM130500 24004KT P6SM VCSH BKN040 OVC080
     FM130800 26008KT 5SM -SHSN BR BKN020 OVC040
     FM131100 29012G20KT P6SM SCT040 BKN070
     FM131700 31020G32KT P6SM BKN040=

USA.gov is the U.S. government's official web portal to all federal, state and local government web resources and services.